sensor_id;sensor_type;location;lat;lon;timestamp;P1;durP1;ratioP1;P2;durP2;ratioP2
11767;SDS011;5941;57.652;12.514;2022-11-15T00:01:37;5.67;;;4.00;;
11767;SDS011;5941;57.652;12.514;2022-11-15T00:04:04;5.50;;;3.50;;
11767;SDS011;5941;57.652;12.514;2022-11-15T00:06:30;5.83;;;3.70;;
11767;SDS011;5941;57.652;12.514;2022-11-15T00:08:59;6.00;;;3.63;;
11767;SDS011;5941;57.652;12.514;2022-11-15T00:11:25;4.63;;;4.03;;
11767;SDS011;5941;57.652;12.514;2022-11-15T00:13:54;6.63;;;3.60;;
11767;SDS011;5941;57.652;12.514;2022-11-15T00:16:20;5.27;;;3.40;;
11767;SDS011;5941;57.652;12.514;2022-11-15T00:18:46;5.50;;;3.70;;
11767;SDS011;5941;57.652;12.514;2022-11-15T00:21:13;5.13;;;3.23;;
11767;SDS011;5941;57.652;12.514;2022-11-15T00:23:39;4.77;;;4.00;;
11767;SDS011;5941;57.652;12.514;2022-11-15T00:26:05;5.20;;;3.93;;
11767;SDS011;5941;57.652;12.514;2022-11-15T00:28:31;5.03;;;3.70;;
11767;SDS011;5941;57.652;12.514;2022-11-15T00:31:04;3.30;;;3.00;;
11767;SDS011;5941;57.652;12.514;2022-11-15T00:33:31;5.10;;;3.47;;
11767;SDS011;5941;57.652;12.514;2022-11-15T00:36:01;3.73;;;3.43;;
11767;SDS011;5941;57.652;12.514;2022-11-15T00:38:31;6.17;;;3.30;;
11767;SDS011;5941;57.652;12.514;2022-11-15T00:40:57;4.87;;;3.70;;
11767;SDS011;5941;57.652;12.514;2022-11-15T00:43:23;4.73;;;3.53;;
11767;SDS011;5941;57.652;12.514;2022-11-15T00:45:49;5.47;;;3.80;;
11767;SDS011;5941;57.652;12.514;2022-11-15T00:48:15;4.93;;;3.53;;
11767;SDS011;5941;57.652;12.514;2022-11-15T00:50:41;5.80;;;3.50;;
11767;SDS011;5941;57.652;12.514;2022-11-15T00:53:07;5.17;;;3.80;;
11767;SDS011;5941;57.652;12.514;2022-11-15T00:55:33;5.60;;;4.30;;
11767;SDS011;5941;57.652;12.514;2022-11-15T00:57:59;5.43;;;3.97;;
11767;SDS011;5941;57.652;12.514;2022-11-15T01:00:25;5.53;;;4.17;;
11767;SDS011;5941;57.652;12.514;2022-11-15T01:02:51;5.73;;;4.07;;
11767;SDS011;5941;57.652;12.514;2022-11-15T01:05:17;5.17;;;4.00;;
11767;SDS011;5941;57.652;12.514;2022-11-15T01:07:43;5.67;;;3.80;;
11767;SDS011;5941;57.652;12.514;2022-11-15T01:10:09;3.83;;;3.47;;
11767;SDS011;5941;57.652;12.514;2022-11-15T01:12:35;6.80;;;4.50;;
11767;SDS011;5941;57.652;12.514;2022-11-15T01:15:01;4.47;;;3.70;;
11767;SDS011;5941;57.652;12.514;2022-11-15T01:17:27;4.70;;;3.90;;
11767;SDS011;5941;57.652;12.514;2022-11-15T01:19:53;6.70;;;3.90;;
11767;SDS011;5941;57.652;12.514;2022-11-15T01:22:20;4.87;;;4.20;;
11767;SDS011;5941;57.652;12.514;2022-11-15T01:24:46;4.67;;;3.77;;
11767;SDS011;5941;57.652;12.514;2022-11-15T01:27:12;7.70;;;4.10;;
11767;SDS011;5941;57.652;12.514;2022-11-15T01:29:38;4.23;;;3.80;;
11767;SDS011;5941;57.652;12.514;2022-11-15T01:32:04;5.20;;;3.80;;
11767;SDS011;5941;57.652;12.514;2022-11-15T01:34:30;5.63;;;4.27;;
11767;SDS011;5941;57.652;12.514;2022-11-15T01:36:56;6.43;;;3.77;;
11767;SDS011;5941;57.652;12.514;2022-11-15T01:39:22;4.60;;;3.70;;
11767;SDS011;5941;57.652;12.514;2022-11-15T01:41:48;5.20;;;4.10;;
11767;SDS011;5941;57.652;12.514;2022-11-15T01:44:34;5.60;;;4.20;;
11767;SDS011;5941;57.652;12.514;2022-11-15T01:47:03;5.40;;;3.80;;
11767;SDS011;5941;57.652;12.514;2022-11-15T01:49:32;5.57;;;3.83;;
11767;SDS011;5941;57.652;12.514;2022-11-15T01:51:58;4.50;;;3.60;;
11767;SDS011;5941;57.652;12.514;2022-11-15T01:54:26;5.73;;;3.90;;
11767;SDS011;5941;57.652;12.514;2022-11-15T01:56:57;4.20;;;3.80;;
11767;SDS011;5941;57.652;12.514;2022-11-15T01:59:25;4.60;;;4.13;;
11767;SDS011;5941;57.652;12.514;2022-11-15T02:01:51;5.77;;;4.10;;
11767;SDS011;5941;57.652;12.514;2022-11-15T02:07:14;6.17;;;4.10;;
11767;SDS011;5941;57.652;12.514;2022-11-15T02:09:41;5.20;;;4.27;;
11767;SDS011;5941;57.652;12.514;2022-11-15T02:12:08;4.73;;;3.77;;
11767;SDS011;5941;57.652;12.514;2022-11-15T02:14:35;5.77;;;4.03;;
11767;SDS011;5941;57.652;12.514;2022-11-15T02:17:12;4.30;;;3.90;;
11767;SDS011;5941;57.652;12.514;2022-11-15T02:32:26;7.70;;;5.27;;
11767;SDS011;5941;57.652;12.514;2022-11-15T02:40:45;6.97;;;4.80;;
11767;SDS011;5941;57.652;12.514;2022-11-15T02:43:14;5.87;;;4.07;;
11767;SDS011;5941;57.652;12.514;2022-11-15T02:46:03;5.67;;;4.40;;
11767;SDS011;5941;57.652;12.514;2022-11-15T02:48:33;5.30;;;4.17;;
11767;SDS011;5941;57.652;12.514;2022-11-15T02:50:59;6.47;;;4.20;;
11767;SDS011;5941;57.652;12.514;2022-11-15T02:53:26;5.13;;;3.60;;
11767;SDS011;5941;57.652;12.514;2022-11-15T02:55:53;6.63;;;4.77;;
11767;SDS011;5941;57.652;12.514;2022-11-15T03:05:53;7.00;;;4.97;;
11767;SDS011;5941;57.652;12.514;2022-11-15T03:08:29;6.87;;;4.70;;
11767;SDS011;5941;57.652;12.514;2022-11-15T03:18:50;5.90;;;4.43;;
11767;SDS011;5941;57.652;12.514;2022-11-15T03:21:18;7.03;;;5.13;;
11767;SDS011;5941;57.652;12.514;2022-11-15T03:23:45;6.03;;;4.90;;
11767;SDS011;5941;57.652;12.514;2022-11-15T03:26:13;8.40;;;4.80;;
11767;SDS011;5941;57.652;12.514;2022-11-15T03:28:41;6.37;;;4.77;;
11767;SDS011;5941;57.652;12.514;2022-11-15T03:31:09;5.87;;;4.70;;
11767;SDS011;5941;57.652;12.514;2022-11-15T03:33:55;7.13;;;5.03;;
11767;SDS011;5941;57.652;12.514;2022-11-15T03:36:23;6.67;;;5.47;;
11767;SDS011;5941;57.652;12.514;2022-11-15T03:38:52;5.30;;;4.47;;
11767;SDS011;5941;57.652;12.514;2022-11-15T03:41:28;6.40;;;4.57;;
11767;SDS011;5941;57.652;12.514;2022-11-15T03:43:57;7.17;;;4.67;;
11767;SDS011;5941;57.652;12.514;2022-11-15T03:46:27;6.33;;;4.80;;
11767;SDS011;5941;57.652;12.514;2022-11-15T03:48:55;4.73;;;4.30;;
11767;SDS011;5941;57.652;12.514;2022-11-15T03:51:22;6.10;;;4.40;;
11767;SDS011;5941;57.652;12.514;2022-11-15T03:53:48;6.57;;;5.20;;
11767;SDS011;5941;57.652;12.514;2022-11-15T03:56:14;5.67;;;4.30;;
11767;SDS011;5941;57.652;12.514;2022-11-15T03:58:40;4.83;;;4.10;;
11767;SDS011;5941;57.652;12.514;2022-11-15T04:01:06;6.57;;;4.50;;
11767;SDS011;5941;57.652;12.514;2022-11-15T04:03:32;5.63;;;4.50;;
11767;SDS011;5941;57.652;12.514;2022-11-15T04:05:58;5.13;;;4.13;;
11767;SDS011;5941;57.652;12.514;2022-11-15T04:08:24;4.90;;;4.20;;
11767;SDS011;5941;57.652;12.514;2022-11-15T04:10:50;4.77;;;4.17;;
11767;SDS011;5941;57.652;12.514;2022-11-15T04:13:16;6.00;;;4.53;;
11767;SDS011;5941;57.652;12.514;2022-11-15T04:15:42;6.10;;;4.60;;
11767;SDS011;5941;57.652;12.514;2022-11-15T04:18:08;7.13;;;4.07;;
11767;SDS011;5941;57.652;12.514;2022-11-15T04:20:34;5.73;;;3.87;;
11767;SDS011;5941;57.652;12.514;2022-11-15T04:23:22;5.40;;;4.23;;
11767;SDS011;5941;57.652;12.514;2022-11-15T04:28:33;4.97;;;4.20;;
11767;SDS011;5941;57.652;12.514;2022-11-15T04:30:59;7.97;;;4.47;;
11767;SDS011;5941;57.652;12.514;2022-11-15T04:33:25;4.50;;;4.03;;
11767;SDS011;5941;57.652;12.514;2022-11-15T04:35:51;6.07;;;4.27;;
11767;SDS011;5941;57.652;12.514;2022-11-15T04:38:36;4.70;;;3.47;;
11767;SDS011;5941;57.652;12.514;2022-11-15T04:41:02;5.77;;;3.90;;
11767;SDS011;5941;57.652;12.514;2022-11-15T04:43:28;6.37;;;4.13;;
11767;SDS011;5941;57.652;12.514;2022-11-15T04:45:54;5.07;;;4.00;;
11767;SDS011;5941;57.652;12.514;2022-11-15T04:48:20;4.73;;;4.23;;
11767;SDS011;5941;57.652;12.514;2022-11-15T04:50:49;5.47;;;4.13;;
11767;SDS011;5941;57.652;12.514;2022-11-15T04:53:15;4.90;;;4.20;;
11767;SDS011;5941;57.652;12.514;2022-11-15T04:55:44;4.73;;;4.23;;
11767;SDS011;5941;57.652;12.514;2022-11-15T04:58:10;5.27;;;4.10;;
11767;SDS011;5941;57.652;12.514;2022-11-15T05:00:36;6.00;;;4.47;;
11767;SDS011;5941;57.652;12.514;2022-11-15T05:03:02;5.27;;;3.53;;
11767;SDS011;5941;57.652;12.514;2022-11-15T05:05:47;5.13;;;3.87;;
11767;SDS011;5941;57.652;12.514;2022-11-15T05:08:13;6.83;;;4.20;;
11767;SDS011;5941;57.652;12.514;2022-11-15T05:10:39;5.47;;;4.17;;
11767;SDS011;5941;57.652;12.514;2022-11-15T05:13:04;4.30;;;3.90;;
11767;SDS011;5941;57.652;12.514;2022-11-15T05:15:30;4.77;;;3.97;;
11767;SDS011;5941;57.652;12.514;2022-11-15T05:17:57;6.83;;;4.03;;
11767;SDS011;5941;57.652;12.514;2022-11-15T05:20:24;4.60;;;4.10;;
11767;SDS011;5941;57.652;12.514;2022-11-15T05:22:50;4.73;;;4.07;;
11767;SDS011;5941;57.652;12.514;2022-11-15T05:25:16;5.57;;;3.80;;
11767;SDS011;5941;57.652;12.514;2022-11-15T05:27:43;5.03;;;3.93;;
11767;SDS011;5941;57.652;12.514;2022-11-15T05:30:09;5.90;;;4.40;;
11767;SDS011;5941;57.652;12.514;2022-11-15T05:32:35;4.83;;;3.97;;
11767;SDS011;5941;57.652;12.514;2022-11-15T05:35:01;4.67;;;4.07;;
11767;SDS011;5941;57.652;12.514;2022-11-15T05:37:28;4.90;;;3.50;;
11767;SDS011;5941;57.652;12.514;2022-11-15T05:39:54;4.70;;;3.90;;
11767;SDS011;5941;57.652;12.514;2022-11-15T05:42:20;5.10;;;3.80;;
11767;SDS011;5941;57.652;12.514;2022-11-15T05:44:47;5.13;;;3.80;;
11767;SDS011;5941;57.652;12.514;2022-11-15T05:47:18;5.53;;;3.83;;
11767;SDS011;5941;57.652;12.514;2022-11-15T05:49:44;6.60;;;4.00;;
11767;SDS011;5941;57.652;12.514;2022-11-15T05:52:11;5.13;;;3.73;;
11767;SDS011;5941;57.652;12.514;2022-11-15T05:54:38;5.27;;;3.37;;
11767;SDS011;5941;57.652;12.514;2022-11-15T05:57:05;4.53;;;3.33;;
11767;SDS011;5941;57.652;12.514;2022-11-15T05:59:31;6.17;;;3.50;;
11767;SDS011;5941;57.652;12.514;2022-11-15T06:01:58;5.97;;;3.73;;
11767;SDS011;5941;57.652;12.514;2022-11-15T06:04:24;4.83;;;3.50;;
11767;SDS011;5941;57.652;12.514;2022-11-15T06:06:50;5.93;;;3.60;;
11767;SDS011;5941;57.652;12.514;2022-11-15T06:09:16;4.90;;;3.80;;
11767;SDS011;5941;57.652;12.514;2022-11-15T06:11:42;5.20;;;3.50;;
11767;SDS011;5941;57.652;12.514;2022-11-15T06:14:08;4.67;;;3.20;;
11767;SDS011;5941;57.652;12.514;2022-11-15T06:16:34;5.03;;;3.47;;
11767;SDS011;5941;57.652;12.514;2022-11-15T06:19:00;4.27;;;3.47;;
11767;SDS011;5941;57.652;12.514;2022-11-15T06:21:26;5.83;;;3.50;;
11767;SDS011;5941;57.652;12.514;2022-11-15T06:23:55;5.13;;;3.40;;
11767;SDS011;5941;57.652;12.514;2022-11-15T06:26:21;5.83;;;3.50;;
11767;SDS011;5941;57.652;12.514;2022-11-15T06:28:47;5.83;;;3.53;;
11767;SDS011;5941;57.652;12.514;2022-11-15T06:31:13;5.20;;;3.80;;
11767;SDS011;5941;57.652;12.514;2022-11-15T06:33:39;4.40;;;3.50;;
11767;SDS011;5941;57.652;12.514;2022-11-15T06:36:10;4.10;;;3.70;;
11767;SDS011;5941;57.652;12.514;2022-11-15T06:38:38;4.47;;;3.27;;
11767;SDS011;5941;57.652;12.514;2022-11-15T06:41:06;3.93;;;3.47;;
11767;SDS011;5941;57.652;12.514;2022-11-15T06:43:32;5.27;;;3.03;;
11767;SDS011;5941;57.652;12.514;2022-11-15T06:45:59;5.07;;;3.70;;
11767;SDS011;5941;57.652;12.514;2022-11-15T06:48:26;4.70;;;3.20;;
11767;SDS011;5941;57.652;12.514;2022-11-15T06:50:52;4.37;;;3.60;;
11767;SDS011;5941;57.652;12.514;2022-11-15T06:53:18;5.20;;;3.50;;
11767;SDS011;5941;57.652;12.514;2022-11-15T06:55:44;5.00;;;4.00;;
11767;SDS011;5941;57.652;12.514;2022-11-15T06:58:10;4.77;;;3.37;;
11767;SDS011;5941;57.652;12.514;2022-11-15T07:00:36;4.93;;;3.13;;
11767;SDS011;5941;57.652;12.514;2022-11-15T07:03:02;4.63;;;3.70;;
11767;SDS011;5941;57.652;12.514;2022-11-15T07:05:29;5.30;;;3.63;;
11767;SDS011;5941;57.652;12.514;2022-11-15T07:07:56;5.83;;;3.40;;
11767;SDS011;5941;57.652;12.514;2022-11-15T07:10:22;4.83;;;3.50;;
11767;SDS011;5941;57.652;12.514;2022-11-15T07:12:50;5.20;;;3.37;;
11767;SDS011;5941;57.652;12.514;2022-11-15T07:15:16;4.53;;;3.30;;
11767;SDS011;5941;57.652;12.514;2022-11-15T07:17:42;7.97;;;3.63;;
11767;SDS011;5941;57.652;12.514;2022-11-15T07:20:09;4.27;;;3.03;;
11767;SDS011;5941;57.652;12.514;2022-11-15T07:22:35;5.67;;;3.63;;
11767;SDS011;5941;57.652;12.514;2022-11-15T07:25:01;5.50;;;3.60;;
11767;SDS011;5941;57.652;12.514;2022-11-15T07:27:27;3.77;;;3.27;;
11767;SDS011;5941;57.652;12.514;2022-11-15T07:29:53;4.43;;;3.30;;
11767;SDS011;5941;57.652;12.514;2022-11-15T07:32:19;5.53;;;3.47;;
11767;SDS011;5941;57.652;12.514;2022-11-15T07:34:45;5.80;;;3.40;;
11767;SDS011;5941;57.652;12.514;2022-11-15T07:37:11;6.13;;;3.70;;
11767;SDS011;5941;57.652;12.514;2022-11-15T07:39:37;5.10;;;3.30;;
11767;SDS011;5941;57.652;12.514;2022-11-15T07:42:03;5.10;;;3.80;;
11767;SDS011;5941;57.652;12.514;2022-11-15T07:44:48;4.50;;;3.37;;
11767;SDS011;5941;57.652;12.514;2022-11-15T07:47:14;4.07;;;3.57;;
11767;SDS011;5941;57.652;12.514;2022-11-15T07:49:40;3.67;;;3.23;;
11767;SDS011;5941;57.652;12.514;2022-11-15T07:52:06;5.70;;;3.80;;
11767;SDS011;5941;57.652;12.514;2022-11-15T07:54:32;4.93;;;3.43;;
11767;SDS011;5941;57.652;12.514;2022-11-15T07:56:58;4.87;;;3.40;;
11767;SDS011;5941;57.652;12.514;2022-11-15T07:59:24;7.93;;;4.03;;
11767;SDS011;5941;57.652;12.514;2022-11-15T08:01:50;5.70;;;3.53;;
11767;SDS011;5941;57.652;12.514;2022-11-15T08:04:16;3.97;;;3.07;;
11767;SDS011;5941;57.652;12.514;2022-11-15T08:06:43;4.53;;;3.47;;
11767;SDS011;5941;57.652;12.514;2022-11-15T08:09:09;6.43;;;3.50;;
11767;SDS011;5941;57.652;12.514;2022-11-15T08:11:35;4.47;;;3.50;;
11767;SDS011;5941;57.652;12.514;2022-11-15T08:14:01;5.10;;;3.60;;
11767;SDS011;5941;57.652;12.514;2022-11-15T08:16:27;4.57;;;3.63;;
11767;SDS011;5941;57.652;12.514;2022-11-15T08:18:53;5.93;;;3.83;;
11767;SDS011;5941;57.652;12.514;2022-11-15T08:21:20;5.97;;;3.87;;
11767;SDS011;5941;57.652;12.514;2022-11-15T08:23:46;3.90;;;3.20;;
11767;SDS011;5941;57.652;12.514;2022-11-15T08:26:12;6.17;;;3.57;;
11767;SDS011;5941;57.652;12.514;2022-11-15T08:28:38;4.87;;;3.53;;
11767;SDS011;5941;57.652;12.514;2022-11-15T08:31:04;4.53;;;3.40;;
11767;SDS011;5941;57.652;12.514;2022-11-15T08:33:31;4.13;;;3.13;;
11767;SDS011;5941;57.652;12.514;2022-11-15T08:35:58;4.40;;;3.40;;
11767;SDS011;5941;57.652;12.514;2022-11-15T08:38:24;5.20;;;3.80;;
11767;SDS011;5941;57.652;12.514;2022-11-15T08:40:51;4.10;;;3.30;;
11767;SDS011;5941;57.652;12.514;2022-11-15T08:43:18;3.40;;;3.10;;
11767;SDS011;5941;57.652;12.514;2022-11-15T08:45:44;4.77;;;3.27;;
11767;SDS011;5941;57.652;12.514;2022-11-15T08:48:10;3.87;;;3.17;;
11767;SDS011;5941;57.652;12.514;2022-11-15T08:50:36;4.53;;;3.53;;
11767;SDS011;5941;57.652;12.514;2022-11-15T08:53:06;5.07;;;3.70;;
11767;SDS011;5941;57.652;12.514;2022-11-15T08:55:35;4.07;;;3.27;;
11767;SDS011;5941;57.652;12.514;2022-11-15T08:58:01;4.30;;;3.50;;
11767;SDS011;5941;57.652;12.514;2022-11-15T09:00:27;5.93;;;4.00;;
11767;SDS011;5941;57.652;12.514;2022-11-15T09:02:53;4.10;;;3.27;;
11767;SDS011;5941;57.652;12.514;2022-11-15T09:05:19;6.50;;;3.40;;
11767;SDS011;5941;57.652;12.514;2022-11-15T09:07:45;4.67;;;3.40;;
11767;SDS011;5941;57.652;12.514;2022-11-15T09:10:11;5.57;;;3.60;;
11767;SDS011;5941;57.652;12.514;2022-11-15T09:12:37;6.17;;;3.83;;
11767;SDS011;5941;57.652;12.514;2022-11-15T09:15:04;4.70;;;3.50;;
11767;SDS011;5941;57.652;12.514;2022-11-15T09:17:30;4.17;;;3.30;;
11767;SDS011;5941;57.652;12.514;2022-11-15T09:19:56;3.90;;;2.77;;
11767;SDS011;5941;57.652;12.514;2022-11-15T09:22:22;4.23;;;3.20;;
11767;SDS011;5941;57.652;12.514;2022-11-15T09:24:48;5.30;;;3.60;;
11767;SDS011;5941;57.652;12.514;2022-11-15T09:27:14;4.23;;;3.33;;
11767;SDS011;5941;57.652;12.514;2022-11-15T09:29:40;9.63;;;3.80;;
11767;SDS011;5941;57.652;12.514;2022-11-15T09:32:06;5.47;;;3.50;;
11767;SDS011;5941;57.652;12.514;2022-11-15T09:34:32;4.23;;;3.43;;
11767;SDS011;5941;57.652;12.514;2022-11-15T09:36:58;5.30;;;3.67;;
11767;SDS011;5941;57.652;12.514;2022-11-15T09:39:24;4.37;;;3.50;;
11767;SDS011;5941;57.652;12.514;2022-11-15T09:44:29;5.00;;;3.73;;
11767;SDS011;5941;57.652;12.514;2022-11-15T09:49:44;4.63;;;3.60;;
11767;SDS011;5941;57.652;12.514;2022-11-15T09:52:12;4.40;;;3.73;;
11767;SDS011;5941;57.652;12.514;2022-11-15T09:54:39;14.77;;;4.03;;
11767;SDS011;5941;57.652;12.514;2022-11-15T09:57:13;5.50;;;3.90;;
11767;SDS011;5941;57.652;12.514;2022-11-15T10:05:11;3.83;;;3.43;;
11767;SDS011;5941;57.652;12.514;2022-11-15T10:07:55;3.50;;;3.20;;
11767;SDS011;5941;57.652;12.514;2022-11-15T10:12:49;6.77;;;3.87;;
11767;SDS011;5941;57.652;12.514;2022-11-15T10:15:17;5.07;;;3.40;;
11767;SDS011;5941;57.652;12.514;2022-11-15T10:20:26;3.80;;;3.00;;
11767;SDS011;5941;57.652;12.514;2022-11-15T10:23:00;5.03;;;3.70;;
11767;SDS011;5941;57.652;12.514;2022-11-15T10:25:27;5.43;;;3.33;;
11767;SDS011;5941;57.652;12.514;2022-11-15T10:27:55;3.77;;;2.83;;
11767;SDS011;5941;57.652;12.514;2022-11-15T10:30:21;4.83;;;3.00;;
11767;SDS011;5941;57.652;12.514;2022-11-15T10:32:47;4.10;;;3.20;;
11767;SDS011;5941;57.652;12.514;2022-11-15T10:37:43;4.43;;;3.10;;
11767;SDS011;5941;57.652;12.514;2022-11-15T10:40:16;6.33;;;3.00;;
11767;SDS011;5941;57.652;12.514;2022-11-15T10:42:43;4.50;;;3.00;;
11767;SDS011;5941;57.652;12.514;2022-11-15T10:45:26;3.97;;;3.00;;
11767;SDS011;5941;57.652;12.514;2022-11-15T10:47:52;3.97;;;3.10;;
11767;SDS011;5941;57.652;12.514;2022-11-15T10:50:27;4.10;;;2.83;;
11767;SDS011;5941;57.652;12.514;2022-11-15T10:52:53;3.33;;;2.53;;
11767;SDS011;5941;57.652;12.514;2022-11-15T10:58:01;3.33;;;2.83;;
11767;SDS011;5941;57.652;12.514;2022-11-15T11:00:37;4.10;;;3.00;;
11767;SDS011;5941;57.652;12.514;2022-11-15T11:05:48;2.90;;;2.27;;
11767;SDS011;5941;57.652;12.514;2022-11-15T11:08:28;2.40;;;2.20;;
11767;SDS011;5941;57.652;12.514;2022-11-15T11:13:24;3.10;;;2.57;;
11767;SDS011;5941;57.652;12.514;2022-11-15T11:18:38;2.83;;;2.43;;
11767;SDS011;5941;57.652;12.514;2022-11-15T11:21:10;2.57;;;2.23;;
11767;SDS011;5941;57.652;12.514;2022-11-15T11:34:00;2.80;;;2.20;;
11767;SDS011;5941;57.652;12.514;2022-11-15T11:36:36;2.97;;;2.20;;
11767;SDS011;5941;57.652;12.514;2022-11-15T11:44:53;3.37;;;2.30;;
11767;SDS011;5941;57.652;12.514;2022-11-15T11:49:29;2.60;;;2.17;;
11767;SDS011;5941;57.652;12.514;2022-11-15T11:52:02;3.17;;;2.23;;
11767;SDS011;5941;57.652;12.514;2022-11-15T12:00:00;2.17;;;1.97;;
11767;SDS011;5941;57.652;12.514;2022-11-15T12:04:56;3.17;;;2.10;;
11767;SDS011;5941;57.652;12.514;2022-11-15T12:07:25;3.27;;;1.90;;
11767;SDS011;5941;57.652;12.514;2022-11-15T12:09:58;3.53;;;2.00;;
11767;SDS011;5941;57.652;12.514;2022-11-15T12:15:12;2.33;;;2.13;;
11767;SDS011;5941;57.652;12.514;2022-11-15T12:17:39;2.80;;;1.77;;
11767;SDS011;5941;57.652;12.514;2022-11-15T12:20:14;2.30;;;1.90;;
11767;SDS011;5941;57.652;12.514;2022-11-15T12:22:54;3.53;;;2.00;;
11767;SDS011;5941;57.652;12.514;2022-11-15T12:25:31;3.60;;;1.70;;
11767;SDS011;5941;57.652;12.514;2022-11-15T12:28:11;4.07;;;2.00;;
11767;SDS011;5941;57.652;12.514;2022-11-15T12:30:52;3.10;;;1.80;;
11767;SDS011;5941;57.652;12.514;2022-11-15T12:33:33;1.97;;;1.63;;
11767;SDS011;5941;57.652;12.514;2022-11-15T12:36:04;2.73;;;1.80;;
11767;SDS011;5941;57.652;12.514;2022-11-15T12:41:32;2.00;;;1.50;;
11767;SDS011;5941;57.652;12.514;2022-11-15T12:43:59;1.57;;;1.43;;
11767;SDS011;5941;57.652;12.514;2022-11-15T12:52:03;1.70;;;1.60;;
11767;SDS011;5941;57.652;12.514;2022-11-15T12:59:49;1.87;;;1.27;;
11767;SDS011;5941;57.652;12.514;2022-11-15T13:17:43;1.10;;;0.70;;
11767;SDS011;5941;57.652;12.514;2022-11-15T13:22:45;0.80;;;0.80;;
11767;SDS011;5941;57.652;12.514;2022-11-15T13:27:50;0.80;;;0.63;;
11767;SDS011;5941;57.652;12.514;2022-11-15T13:30:19;0.87;;;0.80;;
11767;SDS011;5941;57.652;12.514;2022-11-15T13:32:46;0.60;;;0.60;;
11767;SDS011;5941;57.652;12.514;2022-11-15T13:35:23;0.80;;;0.77;;
11767;SDS011;5941;57.652;12.514;2022-11-15T13:37:49;0.60;;;0.60;;
11767;SDS011;5941;57.652;12.514;2022-11-15T13:40:23;0.90;;;0.60;;
11767;SDS011;5941;57.652;12.514;2022-11-15T13:42:50;1.70;;;0.60;;
11767;SDS011;5941;57.652;12.514;2022-11-15T13:45:17;0.70;;;0.70;;
11767;SDS011;5941;57.652;12.514;2022-11-15T13:47:43;0.70;;;0.70;;
11767;SDS011;5941;57.652;12.514;2022-11-15T13:50:12;0.70;;;0.70;;
11767;SDS011;5941;57.652;12.514;2022-11-15T13:52:39;1.43;;;0.93;;
11767;SDS011;5941;57.652;12.514;2022-11-15T14:00:23;1.00;;;0.90;;
11767;SDS011;5941;57.652;12.514;2022-11-15T14:02:50;1.00;;;0.90;;
11767;SDS011;5941;57.652;12.514;2022-11-15T14:05:17;2.30;;;1.00;;
11767;SDS011;5941;57.652;12.514;2022-11-15T14:07:57;0.90;;;0.90;;
11767;SDS011;5941;57.652;12.514;2022-11-15T14:10:36;2.03;;;0.80;;
11767;SDS011;5941;57.652;12.514;2022-11-15T14:13:03;1.00;;;1.00;;
11767;SDS011;5941;57.652;12.514;2022-11-15T14:17:59;1.47;;;0.80;;
11767;SDS011;5941;57.652;12.514;2022-11-15T14:22:52;2.13;;;0.87;;
11767;SDS011;5941;57.652;12.514;2022-11-15T14:25:19;1.33;;;0.70;;
11767;SDS011;5941;57.652;12.514;2022-11-15T14:30:30;1.13;;;0.80;;
11767;SDS011;5941;57.652;12.514;2022-11-15T14:32:56;0.70;;;0.70;;
11767;SDS011;5941;57.652;12.514;2022-11-15T14:35:22;0.97;;;0.90;;
11767;SDS011;5941;57.652;12.514;2022-11-15T14:37:49;1.07;;;0.60;;
11767;SDS011;5941;57.652;12.514;2022-11-15T14:40:16;0.83;;;0.70;;
11767;SDS011;5941;57.652;12.514;2022-11-15T14:42:43;0.57;;;0.50;;
11767;SDS011;5941;57.652;12.514;2022-11-15T14:45:16;0.50;;;0.50;;
11767;SDS011;5941;57.652;12.514;2022-11-15T14:47:43;0.63;;;0.60;;
11767;SDS011;5941;57.652;12.514;2022-11-15T14:50:12;0.53;;;0.53;;
11767;SDS011;5941;57.652;12.514;2022-11-15T14:52:39;0.90;;;0.50;;
11767;SDS011;5941;57.652;12.514;2022-11-15T14:55:11;0.43;;;0.43;;
11767;SDS011;5941;57.652;12.514;2022-11-15T14:57:39;0.50;;;0.50;;
11767;SDS011;5941;57.652;12.514;2022-11-15T15:00:05;1.23;;;0.50;;
11767;SDS011;5941;57.652;12.514;2022-11-15T15:02:31;0.90;;;0.33;;
11767;SDS011;5941;57.652;12.514;2022-11-15T15:04:57;0.60;;;0.40;;
11767;SDS011;5941;57.652;12.514;2022-11-15T15:07:26;0.30;;;0.30;;
11767;SDS011;5941;57.652;12.514;2022-11-15T15:09:52;0.23;;;0.23;;
11767;SDS011;5941;57.652;12.514;2022-11-15T15:12:19;0.47;;;0.20;;
11767;SDS011;5941;57.652;12.514;2022-11-15T15:14:45;1.03;;;0.30;;
11767;SDS011;5941;57.652;12.514;2022-11-15T15:17:12;0.23;;;0.23;;
11767;SDS011;5941;57.652;12.514;2022-11-15T15:19:38;0.40;;;0.30;;
11767;SDS011;5941;57.652;12.514;2022-11-15T15:22:04;0.27;;;0.20;;
11767;SDS011;5941;57.652;12.514;2022-11-15T15:24:30;0.30;;;0.30;;
11767;SDS011;5941;57.652;12.514;2022-11-15T15:26:56;0.30;;;0.30;;
11767;SDS011;5941;57.652;12.514;2022-11-15T15:29:22;1.03;;;0.23;;
11767;SDS011;5941;57.652;12.514;2022-11-15T15:31:48;0.83;;;0.20;;
11767;SDS011;5941;57.652;12.514;2022-11-15T15:34:14;0.50;;;0.20;;
11767;SDS011;5941;57.652;12.514;2022-11-15T15:36:40;0.27;;;0.20;;
11767;SDS011;5941;57.652;12.514;2022-11-15T15:39:08;0.47;;;0.20;;
11767;SDS011;5941;57.652;12.514;2022-11-15T15:41:34;0.27;;;0.20;;
11767;SDS011;5941;57.652;12.514;2022-11-15T15:44:00;0.20;;;0.20;;
11767;SDS011;5941;57.652;12.514;2022-11-15T15:46:26;0.53;;;0.30;;
11767;SDS011;5941;57.652;12.514;2022-11-15T15:48:52;0.13;;;0.13;;
11767;SDS011;5941;57.652;12.514;2022-11-15T15:51:18;0.37;;;0.20;;
11767;SDS011;5941;57.652;12.514;2022-11-15T15:53:44;0.20;;;0.20;;
11767;SDS011;5941;57.652;12.514;2022-11-15T15:56:10;0.20;;;0.20;;
11767;SDS011;5941;57.652;12.514;2022-11-15T15:58:36;0.87;;;0.20;;
11767;SDS011;5941;57.652;12.514;2022-11-15T16:01:02;0.17;;;0.17;;
11767;SDS011;5941;57.652;12.514;2022-11-15T16:03:28;0.63;;;0.10;;
11767;SDS011;5941;57.652;12.514;2022-11-15T16:05:55;0.43;;;0.43;;
11767;SDS011;5941;57.652;12.514;2022-11-15T16:08:22;0.53;;;0.30;;
11767;SDS011;5941;57.652;12.514;2022-11-15T16:10:48;0.13;;;0.13;;
11767;SDS011;5941;57.652;12.514;2022-11-15T16:13:14;0.17;;;0.17;;
11767;SDS011;5941;57.652;12.514;2022-11-15T16:15:40;0.20;;;0.20;;
11767;SDS011;5941;57.652;12.514;2022-11-15T16:18:12;0.53;;;0.50;;
11767;SDS011;5941;57.652;12.514;2022-11-15T16:23:09;0.20;;;0.20;;
11767;SDS011;5941;57.652;12.514;2022-11-15T16:25:44;0.63;;;0.50;;
11767;SDS011;5941;57.652;12.514;2022-11-15T16:28:21;0.90;;;0.30;;
11767;SDS011;5941;57.652;12.514;2022-11-15T16:30:48;1.10;;;0.47;;
11767;SDS011;5941;57.652;12.514;2022-11-15T16:33:15;0.50;;;0.50;;
11767;SDS011;5941;57.652;12.514;2022-11-15T16:35:43;0.50;;;0.30;;
11767;SDS011;5941;57.652;12.514;2022-11-15T16:38:13;0.63;;;0.30;;
11767;SDS011;5941;57.652;12.514;2022-11-15T16:40:39;1.70;;;0.40;;
11767;SDS011;5941;57.652;12.514;2022-11-15T16:43:05;2.10;;;0.40;;
11767;SDS011;5941;57.652;12.514;2022-11-15T16:45:33;0.20;;;0.20;;
11767;SDS011;5941;57.652;12.514;2022-11-15T16:47:59;0.50;;;0.40;;
11767;SDS011;5941;57.652;12.514;2022-11-15T16:50:26;1.47;;;0.40;;
11767;SDS011;5941;57.652;12.514;2022-11-15T16:52:53;0.60;;;0.30;;
11767;SDS011;5941;57.652;12.514;2022-11-15T16:55:20;2.23;;;0.50;;
11767;SDS011;5941;57.652;12.514;2022-11-15T16:57:46;0.30;;;0.30;;
11767;SDS011;5941;57.652;12.514;2022-11-15T17:00:12;3.20;;;0.70;;
11767;SDS011;5941;57.652;12.514;2022-11-15T17:02:40;0.60;;;0.50;;
11767;SDS011;5941;57.652;12.514;2022-11-15T17:05:07;1.47;;;0.80;;
11767;SDS011;5941;57.652;12.514;2022-11-15T17:07:33;2.40;;;0.60;;
11767;SDS011;5941;57.652;12.514;2022-11-15T17:09:59;0.93;;;0.40;;
11767;SDS011;5941;57.652;12.514;2022-11-15T17:12:25;0.30;;;0.30;;
11767;SDS011;5941;57.652;12.514;2022-11-15T17:14:51;1.40;;;0.53;;
11767;SDS011;5941;57.652;12.514;2022-11-15T17:17:17;0.50;;;0.43;;
11767;SDS011;5941;57.652;12.514;2022-11-15T17:19:43;0.60;;;0.60;;